Time;durP1;ratioP1;P1;durP2;ratioP2;P2;SDS_P1;SDS_P2;PMS_P1;PMS_P2;Temp;Humidity;BMP_temperature;BMP_pressure;BME280_temperature;BME280_humidity;BME280_pressure;Samples;Min_cycle;Max_cycle;Signal;HPM_P1;HPM_P2
2023/08/27 00:00:48;;;;;;;61.60;34.42;;;;;;;;;;4980272;28;20567;-77
2023/08/27 00:03:14;;;;;;;63.90;35.08;;;;;;;;;;4981083;28;20070;-77
2023/08/27 00:05:42;;;;;;;58.25;35.38;;;;;;;;;;4968356;28;20041;-77
2023/08/27 00:08:08;;;;;;;64.47;36.85;;;;;;;;;;4984772;28;20105;-77
2023/08/27 00:10:34;;;;;;;57.17;32.50;;;;;;;;;;4983411;28;20034;-76
2023/08/27 00:13:00;;;;;;;54.35;33.70;;;;;;;;;;4973932;28;20030;-77
2023/08/27 00:15:26;;;;;;;53.35;34.17;;;;;;;;;;4969087;28;20404;-77
2023/08/27 00:17:53;;;;;;;53.03;33.03;;;;;;;;;;4967782;28;20331;-76
2023/08/27 00:20:19;;;;;;;58.50;32.95;;;;;;;;;;4978410;28;20067;-76
2023/08/27 00:22:45;;;;;;;62.63;34.88;;;;;;;;;;4982086;28;20043;-77
2023/08/27 00:25:11;;;;;;;52.83;32.85;;;;;;;;;;4983278;28;20391;-77
2023/08/27 00:27:39;;;;;;;49.70;32.30;;;;;;;;;;4983409;28;20043;-75
2023/08/27 00:30:05;;;;;;;53.22;30.85;;;;;;;;;;4972011;28;20037;-76
2023/08/27 00:32:33;;;;;;;48.85;30.73;;;;;;;;;;4963719;28;20485;-76
2023/08/27 00:35:03;;;;;;;49.75;30.20;;;;;;;;;;4957238;28;20043;-76
2023/08/27 00:37:30;;;;;;;50.58;31.88;;;;;;;;;;4965081;28;20030;-75
2023/08/27 00:39:56;;;;;;;49.97;28.95;;;;;;;;;;4978901;28;20092;-76
2023/08/27 00:42:22;;;;;;;53.95;30.75;;;;;;;;;;4967417;28;20037;-77
2023/08/27 00:44:49;;;;;;;45.60;29.77;;;;;;;;;;4968004;28;20034;-76
2023/08/27 00:47:16;;;;;;;48.75;29.17;;;;;;;;;;4967488;28;20034;-76
2023/08/27 00:49:43;;;;;;;47.28;28.92;;;;;;;;;;4971056;28;20042;-77
2023/08/27 00:52:09;;;;;;;51.70;28.58;;;;;;;;;;4970636;28;20807;-76
2023/08/27 00:54:37;;;;;;;45.22;28.23;;;;;;;;;;4968832;28;20050;-76
2023/08/27 00:57:04;;;;;;;48.90;29.38;;;;;;;;;;4970434;28;20164;-76
2023/08/27 00:59:31;;;;;;;44.83;28.63;;;;;;;;;;4967946;28;20023;-76
2023/08/27 01:01:57;;;;;;;41.35;27.38;;;;;;;;;;5002802;28;20152;-76
2023/08/27 01:04:23;;;;;;;43.85;27.13;;;;;;;;;;5003519;28;21393;-76
2023/08/27 01:06:50;;;;;;;46.80;27.98;;;;;;;;;;4985908;28;20412;-75
2023/08/27 01:09:38;;;;;;;46.75;28.65;;;;;;;;;;4974660;28;20180;-76
2023/08/27 01:12:19;;;;;;;50.80;29.95;;;;;;;;;;5001226;28;20032;-76
2023/08/27 01:14:48;;;;;;;50.90;30.45;;;;;;;;;;4986372;28;20552;-76
2023/08/27 01:17:16;;;;;;;50.90;29.95;;;;;;;;;;5000543;28;20032;-77
2023/08/27 01:19:43;;;;;;;56.05;30.75;;;;;;;;;;5002860;28;20117;-74
2023/08/27 01:22:09;;;;;;;52.10;31.55;;;;;;;;;;4984962;28;20098;-77
2023/08/27 01:24:35;;;;;;;50.90;30.95;;;;;;;;;;4989964;28;20033;-77
2023/08/27 01:27:03;;;;;;;54.40;33.10;;;;;;;;;;4988971;28;20455;-76
2023/08/27 01:29:48;;;;;;;59.15;32.58;;;;;;;;;;4966538;28;20038;-76
2023/08/27 01:32:33;;;;;;;53.75;32.05;;;;;;;;;;4990677;28;20026;-79
2023/08/27 01:35:00;;;;;;;53.10;33.00;;;;;;;;;;4988849;28;20033;-76
2023/08/27 01:37:26;;;;;;;47.95;31.85;;;;;;;;;;4990159;28;20088;-75
2023/08/27 01:40:05;;;;;;;51.05;31.88;;;;;;;;;;4986866;28;20484;-76
2023/08/27 01:42:32;;;;;;;51.33;30.58;;;;;;;;;;5006198;28;20033;-75
2023/08/27 01:44:59;;;;;;;55.40;32.00;;;;;;;;;;4988250;28;20046;-76
2023/08/27 01:47:25;;;;;;;52.25;31.23;;;;;;;;;;4989227;28;20018;-76
2023/08/27 01:49:52;;;;;;;51.80;31.35;;;;;;;;;;4989706;28;20451;-77
2023/08/27 01:52:18;;;;;;;52.42;31.60;;;;;;;;;;4984119;28;20029;-76
2023/08/27 01:54:45;;;;;;;52.60;30.88;;;;;;;;;;4988384;28;20025;-76
2023/08/27 01:57:11;;;;;;;51.22;30.48;;;;;;;;;;5007159;28;20407;-76
2023/08/27 01:59:37;;;;;;;47.33;29.65;;;;;;;;;;4988321;28;20045;-76
2023/08/27 02:02:04;;;;;;;52.47;29.98;;;;;;;;;;4968338;28;20133;-77
2023/08/27 02:04:30;;;;;;;52.00;30.17;;;;;;;;;;4989326;28;20080;-76
2023/08/27 02:06:57;;;;;;;55.58;29.13;;;;;;;;;;5004276;28;20149;-76
2023/08/27 02:09:23;;;;;;;49.35;30.13;;;;;;;;;;4989100;28;20120;-76
2023/08/27 02:11:50;;;;;;;51.47;28.38;;;;;;;;;;4990406;28;20034;-76
2023/08/27 02:14:16;;;;;;;45.53;27.40;;;;;;;;;;5003882;28;20034;-76
2023/08/27 02:16:42;;;;;;;44.45;26.17;;;;;;;;;;4997320;28;20096;-77
2023/08/27 02:19:09;;;;;;;40.28;25.48;;;;;;;;;;4983258;28;20106;-77
2023/08/27 02:21:35;;;;;;;41.10;24.50;;;;;;;;;;5002890;28;20030;-76
2023/08/27 02:24:01;;;;;;;37.22;23.95;;;;;;;;;;4991184;28;20360;-77
2023/08/27 02:26:27;;;;;;;32.90;21.65;;;;;;;;;;5002510;28;20478;-77
2023/08/27 02:28:54;;;;;;;37.90;23.20;;;;;;;;;;4987456;28;20030;-77
2023/08/27 02:31:20;;;;;;;32.80;21.70;;;;;;;;;;4988362;28;20026;-77
2023/08/27 02:33:46;;;;;;;35.03;21.02;;;;;;;;;;5001367;28;20115;-77
2023/08/27 02:36:13;;;;;;;29.73;19.95;;;;;;;;;;4985874;28;20032;-77
2023/08/27 02:38:39;;;;;;;29.75;21.02;;;;;;;;;;5003947;28;20045;-77
2023/08/27 02:41:05;;;;;;;35.33;21.60;;;;;;;;;;5003402;28;20037;-76
2023/08/27 02:43:31;;;;;;;30.70;20.45;;;;;;;;;;4986536;28;20038;-76
2023/08/27 02:45:58;;;;;;;32.80;20.75;;;;;;;;;;4988363;28;20056;-76
2023/08/27 02:48:25;;;;;;;32.20;19.42;;;;;;;;;;4989421;28;20036;-75
2023/08/27 02:50:51;;;;;;;31.63;20.05;;;;;;;;;;4976117;28;20026;-75
2023/08/27 02:53:17;;;;;;;27.40;19.15;;;;;;;;;;5003759;28;20026;-76
2023/08/27 02:55:43;;;;;;;31.30;19.88;;;;;;;;;;5004703;28;20084;-77
2023/08/27 02:58:09;;;;;;;28.23;18.40;;;;;;;;;;4983030;28;20026;-77
2023/08/27 03:00:40;;;;;;;30.00;18.10;;;;;;;;;;5001998;28;20073;-76
2023/08/27 03:03:07;;;;;;;26.95;18.48;;;;;;;;;;4987120;28;20034;-77
2023/08/27 03:05:34;;;;;;;27.45;18.42;;;;;;;;;;4988111;28;20954;-77
2023/08/27 03:08:00;;;;;;;29.52;18.27;;;;;;;;;;5005442;28;20293;-77
2023/08/27 03:10:26;;;;;;;27.90;17.77;;;;;;;;;;4996816;28;20030;-78
2023/08/27 03:12:52;;;;;;;26.05;18.65;;;;;;;;;;4987157;28;20076;-76
2023/08/27 03:15:18;;;;;;;24.55;17.40;;;;;;;;;;4960267;28;20190;-77
2023/08/27 03:17:44;;;;;;;26.85;18.75;;;;;;;;;;4988778;28;20037;-76
2023/08/27 03:20:11;;;;;;;28.02;18.70;;;;;;;;;;4989790;28;20306;-76
2023/08/27 03:22:38;;;;;;;28.88;19.02;;;;;;;;;;4985555;28;20038;-77
2023/08/27 03:25:05;;;;;;;29.92;19.50;;;;;;;;;;5009360;28;20029;-76
2023/08/27 03:27:33;;;;;;;32.78;18.83;;;;;;;;;;5004749;28;20042;-78
2023/08/27 03:30:00;;;;;;;27.90;19.17;;;;;;;;;;5006520;28;20034;-78
2023/08/27 03:32:26;;;;;;;30.30;19.02;;;;;;;;;;4978874;28;20034;-77
2023/08/27 03:34:52;;;;;;;31.50;19.25;;;;;;;;;;4988475;28;20496;-77
2023/08/27 03:37:18;;;;;;;32.38;20.52;;;;;;;;;;4988142;28;20037;-79
2023/08/27 03:39:45;;;;;;;33.97;19.80;;;;;;;;;;4991569;28;20076;-77
2023/08/27 03:42:11;;;;;;;27.88;19.30;;;;;;;;;;4987072;28;20033;-79
2023/08/27 03:44:37;;;;;;;30.30;19.58;;;;;;;;;;5006373;28;20033;-79
2023/08/27 03:47:04;;;;;;;30.48;20.17;;;;;;;;;;4981411;28;20495;-78
2023/08/27 03:49:31;;;;;;;30.75;19.83;;;;;;;;;;5006218;28;20022;-78
2023/08/27 03:51:57;;;;;;;33.95;21.02;;;;;;;;;;4986043;28;20030;-78
2023/08/27 03:54:25;;;;;;;32.72;19.98;;;;;;;;;;4964517;28;20505;-79
2023/08/27 03:56:51;;;;;;;33.78;19.85;;;;;;;;;;4981896;28;20034;-80
2023/08/27 03:59:18;;;;;;;34.25;19.73;;;;;;;;;;5002889;28;20069;-79
2023/08/27 04:01:44;;;;;;;33.70;20.65;;;;;;;;;;4981517;28;20046;-80
2023/08/27 04:04:11;;;;;;;35.58;21.98;;;;;;;;;;4967792;28;20391;-79
2023/08/27 04:06:37;;;;;;;31.23;21.55;;;;;;;;;;4980637;28;20026;-80
2023/08/27 04:09:04;;;;;;;38.70;21.70;;;;;;;;;;4968197;28;20049;-80
2023/08/27 04:11:31;;;;;;;34.40;21.70;;;;;;;;;;4987001;28;20034;-79
2023/08/27 04:13:57;;;;;;;37.15;21.83;;;;;;;;;;4969675;28;20030;-78
2023/08/27 04:16:23;;;;;;;35.47;22.98;;;;;;;;;;4970791;28;20051;-79
2023/08/27 04:18:49;;;;;;;36.92;22.77;;;;;;;;;;4967842;28;20084;-79
2023/08/27 04:21:15;;;;;;;34.50;21.85;;;;;;;;;;4979264;28;20034;-78
2023/08/27 04:23:41;;;;;;;34.67;23.00;;;;;;;;;;4957030;28;20176;-80
2023/08/27 04:26:08;;;;;;;34.72;22.45;;;;;;;;;;4955545;28;20026;-79
2023/08/27 04:28:34;;;;;;;38.33;24.45;;;;;;;;;;4972027;28;20407;-79
2023/08/27 04:31:00;;;;;;;41.20;23.90;;;;;;;;;;4971862;28;20065;-79
2023/08/27 04:33:26;;;;;;;33.85;23.08;;;;;;;;;;4971902;28;20053;-80
2023/08/27 04:35:52;;;;;;;39.45;25.08;;;;;;;;;;4972812;28;20124;-80
2023/08/27 04:38:19;;;;;;;37.33;23.60;;;;;;;;;;4988299;28;20069;-80
2023/08/27 04:40:50;;;;;;;35.47;24.23;;;;;;;;;;4983428;28;20494;-79
2023/08/27 04:43:16;;;;;;;;;;;;;;;;;;4978911;28;20043;-80
2023/08/27 04:45:43;;;;;;;39.40;24.58;;;;;;;;;;4986982;28;19914;-79
2023/08/27 04:48:09;;;;;;;38.80;25.08;;;;;;;;;;4987731;28;20082;-81
2023/08/27 04:50:37;;;;;;;36.40;24.23;;;;;;;;;;4970877;28;20066;-80
2023/08/27 04:53:03;;;;;;;39.67;26.42;;;;;;;;;;4984473;28;20031;-79
2023/08/27 04:55:29;;;;;;;38.67;27.20;;;;;;;;;;4972952;28;20034;-79
2023/08/27 04:57:55;;;;;;;41.13;27.15;;;;;;;;;;4984129;28;20041;-79
2023/08/27 05:00:23;;;;;;;39.40;26.73;;;;;;;;;;4990790;28;20026;-83
2023/08/27 05:02:50;;;;;;;45.42;28.70;;;;;;;;;;5008568;28;20113;-81
2023/08/27 05:05:17;;;;;;;40.30;26.88;;;;;;;;;;4990748;28;20038;-80
2023/08/27 05:07:44;;;;;;;41.33;27.42;;;;;;;;;;4989224;28;20501;-79
2023/08/27 05:10:10;;;;;;;42.80;26.90;;;;;;;;;;4988535;28;20030;-79
2023/08/27 05:12:36;;;;;;;43.97;28.40;;;;;;;;;;5006749;28;20026;-79
2023/08/27 05:15:06;;;;;;;46.60;28.75;;;;;;;;;;4992367;28;20368;-79
2023/08/27 05:17:32;;;;;;;44.53;28.17;;;;;;;;;;5004981;28;20390;-80
2023/08/27 05:19:58;;;;;;;42.22;27.45;;;;;;;;;;5004951;28;20034;-79
2023/08/27 05:22:25;;;;;;;42.83;27.08;;;;;;;;;;5004761;28;20026;-80
2023/08/27 05:24:51;;;;;;;54.13;29.60;;;;;;;;;;4991533;28;20033;-80
2023/08/27 05:27:17;;;;;;;44.25;28.90;;;;;;;;;;4972256;28;20028;-77
2023/08/27 05:29:43;;;;;;;45.60;28.13;;;;;;;;;;5003455;28;20021;-80
2023/08/27 05:32:09;;;;;;;43.20;28.40;;;;;;;;;;5007385;28;20066;-79
2023/08/27 05:34:36;;;;;;;38.95;26.27;;;;;;;;;;4969798;28;20124;-80
2023/08/27 05:37:02;;;;;;;36.28;24.52;;;;;;;;;;5003549;28;20038;-79
2023/08/27 05:39:31;;;;;;;36.50;22.90;;;;;;;;;;4987962;28;20053;-79
2023/08/27 05:41:57;;;;;;;31.60;21.92;;;;;;;;;;5007843;28;20392;-79
2023/08/27 05:44:23;;;;;;;31.65;21.92;;;;;;;;;;4987827;28;20026;-78
2023/08/27 05:46:50;;;;;;;30.73;21.77;;;;;;;;;;5001211;28;20042;-80
2023/08/27 05:49:17;;;;;;;37.03;21.50;;;;;;;;;;4986744;28;20084;-78
2023/08/27 05:51:46;;;;;;;28.83;20.70;;;;;;;;;;4993984;28;20124;-78
2023/08/27 05:54:13;;;;;;;33.58;21.90;;;;;;;;;;4995388;28;20033;-79
2023/08/27 05:56:39;;;;;;;33.35;20.95;;;;;;;;;;4975377;28;20040;-81
2023/08/27 05:59:05;;;;;;;35.33;22.20;;;;;;;;;;5005943;28;20050;-79
2023/08/27 06:01:31;;;;;;;34.30;21.45;;;;;;;;;;5004562;28;20046;-81
2023/08/27 06:03:59;;;;;;;32.78;21.30;;;;;;;;;;4987917;28;20072;-79
2023/08/27 06:06:25;;;;;;;34.60;21.58;;;;;;;;;;4971695;28;20432;-78
2023/08/27 06:08:51;;;;;;;31.55;21.45;;;;;;;;;;5003464;28;20128;-79
2023/08/27 06:11:17;;;;;;;36.35;21.40;;;;;;;;;;4986519;28;20153;-79
2023/08/27 06:13:44;;;;;;;29.00;20.65;;;;;;;;;;5003246;28;20109;-79
2023/08/27 06:16:10;;;;;;;28.33;18.63;;;;;;;;;;4989826;28;20056;-79
2023/08/27 06:18:37;;;;;;;32.47;20.25;;;;;;;;;;5000731;28;20057;-79
2023/08/27 06:21:03;;;;;;;30.63;19.27;;;;;;;;;;4987312;28;20061;-79
2023/08/27 06:23:30;;;;;;;30.25;18.70;;;;;;;;;;4990005;28;20067;-78
2023/08/27 06:26:02;;;;;;;28.60;18.92;;;;;;;;;;4989805;28;20038;-79
2023/08/27 06:28:29;;;;;;;28.70;19.75;;;;;;;;;;5003710;28;20262;-79
2023/08/27 06:30:56;;;;;;;30.27;20.38;;;;;;;;;;4990522;28;20057;-79
2023/08/27 06:33:23;;;;;;;31.58;20.42;;;;;;;;;;4982566;28;20030;-80
2023/08/27 06:35:49;;;;;;;29.38;18.27;;;;;;;;;;4989698;28;20096;-80
2023/08/27 06:38:15;;;;;;;27.92;18.00;;;;;;;;;;4992501;28;20030;-79
2023/08/27 06:40:42;;;;;;;26.10;18.52;;;;;;;;;;4976871;28;20045;-79
2023/08/27 06:43:09;;;;;;;28.20;17.35;;;;;;;;;;4990948;28;20570;-80
2023/08/27 06:45:42;;;;;;;21.05;15.85;;;;;;;;;;4986235;28;20423;-80
2023/08/27 06:48:09;;;;;;;21.85;15.27;;;;;;;;;;5010508;28;20072;-80
2023/08/27 06:50:36;;;;;;;22.00;14.77;;;;;;;;;;5008896;28;20513;-80
2023/08/27 06:53:04;;;;;;;26.48;17.50;;;;;;;;;;5004306;28;20038;-78
2023/08/27 06:55:30;;;;;;;31.25;17.30;;;;;;;;;;4991092;28;20088;-79
2023/08/27 06:57:56;;;;;;;26.55;16.80;;;;;;;;;;4975499;28;20045;-78
2023/08/27 07:00:23;;;;;;;21.77;16.65;;;;;;;;;;5006479;28;20053;-77
2023/08/27 07:02:50;;;;;;;23.48;17.63;;;;;;;;;;4987844;28;20045;-77
2023/08/27 07:05:16;;;;;;;26.02;17.00;;;;;;;;;;4971864;28;20046;-79
2023/08/27 07:07:42;;;;;;;23.15;15.95;;;;;;;;;;4985000;28;20026;-77
2023/08/27 07:10:10;;;;;;;20.63;15.48;;;;;;;;;;5002480;28;20125;-78
2023/08/27 07:12:37;;;;;;;19.70;14.52;;;;;;;;;;4987169;28;20164;-78
2023/08/27 07:15:05;;;;;;;18.55;14.68;;;;;;;;;;5002948;28;20517;-78
2023/08/27 07:17:34;;;;;;;20.98;15.65;;;;;;;;;;4987016;28;20053;-77
2023/08/27 07:20:02;;;;;;;22.53;15.07;;;;;;;;;;4988827;28;20026;-78
2023/08/27 07:22:29;;;;;;;22.80;15.95;;;;;;;;;;4988458;28;20022;-78
2023/08/27 07:24:55;;;;;;;28.33;15.45;;;;;;;;;;4984527;28;20085;-76
2023/08/27 07:27:21;;;;;;;23.65;16.25;;;;;;;;;;4982109;28;20041;-77
2023/08/27 07:29:48;;;;;;;23.05;16.27;;;;;;;;;;4999070;28;20378;-77
2023/08/27 07:32:14;;;;;;;22.67;16.25;;;;;;;;;;4983360;28;20022;-78
2023/08/27 07:34:41;;;;;;;21.90;16.10;;;;;;;;;;4985165;28;20041;-78
2023/08/27 07:37:07;;;;;;;20.73;16.55;;;;;;;;;;5003652;28;20030;-79
2023/08/27 07:39:33;;;;;;;26.85;16.67;;;;;;;;;;4990612;28;20399;-77
2023/08/27 07:41:59;;;;;;;24.77;17.65;;;;;;;;;;4988779;28;20064;-82
2023/08/27 07:44:26;;;;;;;21.80;16.17;;;;;;;;;;4987578;28;20050;-77
2023/08/27 07:46:53;;;;;;;25.75;16.52;;;;;;;;;;4987305;28;20019;-78
2023/08/27 07:49:19;;;;;;;21.90;16.63;;;;;;;;;;5004659;28;20037;-79
2023/08/27 07:51:46;;;;;;;22.13;15.88;;;;;;;;;;4971886;28;20030;-79
2023/08/27 07:54:12;;;;;;;21.48;17.38;;;;;;;;;;4983396;28;20099;-78
2023/08/27 07:56:38;;;;;;;23.63;16.42;;;;;;;;;;4978814;28;20034;-77
2023/08/27 07:59:04;;;;;;;27.63;16.95;;;;;;;;;;5003295;28;20037;-77
2023/08/27 08:01:31;;;;;;;24.45;16.25;;;;;;;;;;4976557;28;20050;-78
2023/08/27 08:03:57;;;;;;;23.13;16.13;;;;;;;;;;5009372;28;20026;-77
2023/08/27 08:06:24;;;;;;;21.90;16.05;;;;;;;;;;4997994;28;20042;-78
2023/08/27 08:08:50;;;;;;;21.02;14.80;;;;;;;;;;4996875;28;20025;-78
2023/08/27 08:11:16;;;;;;;17.55;14.10;;;;;;;;;;5009322;28;20033;-77
2023/08/27 08:13:44;;;;;;;15.43;12.00;;;;;;;;;;5002879;28;20030;-78
2023/08/27 08:16:11;;;;;;;19.20;12.35;;;;;;;;;;4998571;28;20038;-77
2023/08/27 08:18:37;;;;;;;19.13;12.63;;;;;;;;;;4986217;28;20026;-78
2023/08/27 08:21:03;;;;;;;17.50;12.95;;;;;;;;;;5001736;28;20049;-77
2023/08/27 08:23:30;;;;;;;13.75;10.77;;;;;;;;;;5005051;28;20037;-78
2023/08/27 08:25:57;;;;;;;15.52;10.82;;;;;;;;;;4980112;28;20447;-79
2023/08/27 08:28:23;;;;;;;19.20;10.93;;;;;;;;;;5003493;28;20069;-77
2023/08/27 08:30:50;;;;;;;15.10;10.20;;;;;;;;;;4988618;28;20030;-77
2023/08/27 08:33:16;;;;;;;15.98;10.52;;;;;;;;;;5004346;28;20061;-78
2023/08/27 08:35:43;;;;;;;13.68;10.52;;;;;;;;;;5003587;28;20025;-77
2023/08/27 08:38:09;;;;;;;13.18;9.40;;;;;;;;;;5002290;28;20054;-77
2023/08/27 08:40:49;;;;;;;11.65;8.75;;;;;;;;;;5003720;28;20034;-77
2023/08/27 08:43:18;;;;;;;14.05;9.60;;;;;;;;;;5003204;28;20084;-76
2023/08/27 08:45:53;;;;;;;15.82;10.52;;;;;;;;;;4988178;28;20471;-78
2023/08/27 08:48:22;;;;;;;12.20;8.43;;;;;;;;;;5004975;28;20024;-74
2023/08/27 08:50:50;;;;;;;12.13;8.20;;;;;;;;;;5008433;28;20030;-76
2023/08/27 08:53:17;;;;;;;12.70;7.78;;;;;;;;;;5010703;28;20077;-75
2023/08/27 08:55:45;;;;;;;11.30;8.75;;;;;;;;;;5009203;28;20133;-77
2023/08/27 08:58:13;;;;;;;10.77;9.05;;;;;;;;;;5007512;28;20045;-76
2023/08/27 09:00:39;;;;;;;11.65;9.15;;;;;;;;;;5000942;28;20121;-75
2023/08/27 09:03:06;;;;;;;11.15;9.82;;;;;;;;;;4991014;28;20050;-76
2023/08/27 09:05:32;;;;;;;13.60;10.82;;;;;;;;;;5005500;28;20081;-74
2023/08/27 09:07:58;;;;;;;14.88;12.98;;;;;;;;;;5003323;28;20026;-76
2023/08/27 09:10:26;;;;;;;16.38;12.63;;;;;;;;;;4990019;28;20038;-75
2023/08/27 09:12:56;;;;;;;17.73;13.32;;;;;;;;;;5006292;28;20483;-74
2023/08/27 09:15:22;;;;;;;17.95;12.93;;;;;;;;;;5002454;28;20096;-77
2023/08/27 09:17:48;;;;;;;19.02;12.52;;;;;;;;;;4989995;28;20034;-75
2023/08/27 09:20:15;;;;;;;15.85;12.85;;;;;;;;;;4989735;28;20115;-76
2023/08/27 09:22:42;;;;;;;13.10;11.70;;;;;;;;;;5007716;28;20066;-75
2023/08/27 09:25:10;;;;;;;17.60;11.57;;;;;;;;;;4991527;28;20068;-75
2023/08/27 09:27:36;;;;;;;15.43;12.15;;;;;;;;;;5005073;28;20037;-76
2023/08/27 09:30:06;;;;;;;15.23;11.40;;;;;;;;;;4991077;28;20042;-77
2023/08/27 09:32:32;;;;;;;17.85;10.75;;;;;;;;;;5007850;28;20041;-76
2023/08/27 09:35:02;;;;;;;15.70;10.88;;;;;;;;;;5005521;28;20484;-77
2023/08/27 09:37:29;;;;;;;13.00;9.23;;;;;;;;;;5007705;28;20057;-76
2023/08/27 09:39:56;;;;;;;14.00;9.38;;;;;;;;;;5010304;28;20030;-76
2023/08/27 09:42:23;;;;;;;13.48;8.65;;;;;;;;;;5012423;28;20022;-76
2023/08/27 09:44:52;;;;;;;11.48;8.32;;;;;;;;;;5009470;28;20030;-76
2023/08/27 09:47:29;;;;;;;10.73;7.18;;;;;;;;;;5011171;28;21191;-77
2023/08/27 09:49:56;;;;;;;5.10;2.35;;;;;;;;;;5008049;28;20135;-76
2023/08/27 09:52:26;;;;;;;3.70;1.88;;;;;;;;;;5007511;28;20096;-76
2023/08/27 09:54:52;;;;;;;2.85;1.52;;;;;;;;;;5005425;28;20073;-75
2023/08/27 09:57:20;;;;;;;2.88;1.27;;;;;;;;;;5000557;28;20545;-76
2023/08/27 09:59:46;;;;;;;2.95;1.10;;;;;;;;;;4986139;28;20025;-76
2023/08/27 10:02:13;;;;;;;1.75;1.10;;;;;;;;;;5003749;28;20049;-75
2023/08/27 10:05:09;;;;;;;2.38;0.95;;;;;;;;;;5003077;28;20369;-75
2023/08/27 10:07:35;;;;;;;3.83;1.23;;;;;;;;;;4989976;28;20049;-76
2023/08/27 10:10:04;;;;;;;4.95;1.17;;;;;;;;;;5010514;28;20030;-74
2023/08/27 10:12:30;;;;;;;4.05;1.00;;;;;;;;;;5010864;28;20040;-75
2023/08/27 10:14:58;;;;;;;2.03;0.90;;;;;;;;;;5006751;28;20123;-76
2023/08/27 10:17:24;;;;;;;2.20;0.90;;;;;;;;;;5005728;28;20049;-75
2023/08/27 10:19:51;;;;;;;4.00;1.30;;;;;;;;;;4989970;28;20136;-74
2023/08/27 10:22:19;;;;;;;3.88;1.38;;;;;;;;;;4997103;28;20510;-75
2023/08/27 10:24:46;;;;;;;2.13;1.10;;;;;;;;;;5009491;28;20065;-74
2023/08/27 10:27:12;;;;;;;2.20;0.90;;;;;;;;;;5016860;28;20076;-74
2023/08/27 10:29:40;;;;;;;2.05;1.15;;;;;;;;;;5010172;28;20026;-76
2023/08/27 10:32:07;;;;;;;2.60;1.08;;;;;;;;;;5007246;28;20041;-75
2023/08/27 10:34:33;;;;;;;4.25;1.20;;;;;;;;;;5001237;28;20077;-75
2023/08/27 10:37:03;;;;;;;2.60;1.17;;;;;;;;;;5009509;28;20048;-76
2023/08/27 10:39:36;;;;;;;4.00;1.10;;;;;;;;;;5009371;28;20434;-75
2023/08/27 10:42:03;;;;;;;1.83;0.98;;;;;;;;;;4999691;28;20468;-75
2023/08/27 10:44:29;;;;;;;3.03;1.23;;;;;;;;;;4993694;28;20041;-75
2023/08/27 10:47:12;;;;;;;3.47;1.20;;;;;;;;;;4992499;28;20040;-77
2023/08/27 10:49:39;;;;;;;4.60;1.13;;;;;;;;;;4994509;28;20034;-76
2023/08/27 10:52:18;;;;;;;6.60;1.40;;;;;;;;;;5008468;28;20018;-75
2023/08/27 10:54:48;;;;;;;1.80;1.10;;;;;;;;;;5005784;28;20060;-76
2023/08/27 10:57:17;;;;;;;2.30;1.30;;;;;;;;;;5008857;28;20084;-77
2023/08/27 10:59:43;;;;;;;4.28;1.25;;;;;;;;;;5001202;28;20057;-76
2023/08/27 11:02:10;;;;;;;4.95;1.30;;;;;;;;;;5004870;28;20056;-75
2023/08/27 11:04:41;;;;;;;3.28;1.10;;;;;;;;;;4991397;28;20037;-78
2023/08/27 11:07:09;;;;;;;3.55;1.27;;;;;;;;;;4982427;28;20041;-76
2023/08/27 11:09:36;;;;;;;1.60;0.90;;;;;;;;;;4990395;28;20483;-75
2023/08/27 11:12:04;;;;;;;3.90;1.00;;;;;;;;;;5009240;28;20030;-76
2023/08/27 11:14:37;;;;;;;2.70;0.85;;;;;;;;;;5009861;28;20448;-75
2023/08/27 11:17:04;;;;;;;1.80;1.00;;;;;;;;;;5010319;28;20037;-75
2023/08/27 11:19:30;;;;;;;2.65;0.90;;;;;;;;;;5010481;28;20037;-76
2023/08/27 11:22:10;;;;;;;1.70;0.75;;;;;;;;;;5007200;28;20030;-75
2023/08/27 11:24:42;;;;;;;1.23;0.60;;;;;;;;;;5007281;28;20042;-75
2023/08/27 11:27:08;;;;;;;1.85;0.88;;;;;;;;;;5005028;28;20128;-74
2023/08/27 11:29:39;;;;;;;3.15;1.00;;;;;;;;;;4988383;28;20056;-75
2023/08/27 11:32:05;;;;;;;;;;;;;;;;;;5001209;28;20105;-75
2023/08/27 11:34:35;;;;;;;5.75;1.10;;;;;;;;;;5000884;28;20458;-75
2023/08/27 11:37:03;;;;;;;3.08;1.27;;;;;;;;;;4981809;28;20030;-76
2023/08/27 11:39:30;;;;;;;2.00;0.90;;;;;;;;;;5001902;28;20030;-74
2023/08/27 11:41:56;;;;;;;2.00;1.00;;;;;;;;;;5000619;28;20065;-75
2023/08/27 11:44:23;;;;;;;1.88;1.40;;;;;;;;;;5005963;28;20036;-75
2023/08/27 11:46:51;;;;;;;3.90;1.50;;;;;;;;;;5005912;28;20061;-74
2023/08/27 11:49:27;;;;;;;4.97;1.95;;;;;;;;;;4983776;28;20084;-76
2023/08/27 11:51:55;;;;;;;2.80;1.48;;;;;;;;;;5002106;28;20109;-76
2023/08/27 11:54:24;;;;;;;4.90;1.73;;;;;;;;;;4997760;28;20037;-75
2023/08/27 11:56:52;;;;;;;4.20;1.73;;;;;;;;;;5005232;28;20050;-75
2023/08/27 11:59:18;;;;;;;3.80;1.75;;;;;;;;;;5000896;28;20033;-76
2023/08/27 12:01:45;;;;;;;4.57;1.73;;;;;;;;;;5002085;28;20128;-77
2023/08/27 12:04:12;;;;;;;3.38;1.52;;;;;;;;;;5004001;28;20080;-75
2023/08/27 12:06:38;;;;;;;5.88;1.63;;;;;;;;;;4977730;28;20069;-75
2023/08/27 12:09:04;;;;;;;4.80;1.40;;;;;;;;;;4983566;28;20072;-77
2023/08/27 12:11:30;;;;;;;4.85;1.55;;;;;;;;;;5004806;28;20029;-75
2023/08/27 12:14:00;;;;;;;6.30;2.25;;;;;;;;;;4999337;28;20034;-76
2023/08/27 12:16:30;;;;;;;2.75;1.30;;;;;;;;;;5006159;28;20711;-75
2023/08/27 12:19:00;;;;;;;4.65;1.67;;;;;;;;;;5001278;28;20042;-76
2023/08/27 12:21:27;;;;;;;;;;;;;;;;;;4986677;28;20041;-77
2023/08/27 12:23:53;;;;;;;3.75;1.23;;;;;;;;;;4980965;28;19913;-75
2023/08/27 12:26:19;;;;;;;3.45;1.30;;;;;;;;;;5000821;28;20034;-75
2023/08/27 12:28:54;;;;;;;5.18;1.00;;;;;;;;;;4999573;28;20032;-76
2023/08/27 12:31:24;;;;;;;2.63;1.20;;;;;;;;;;5000921;28;20026;-77
2023/08/27 12:33:56;;;;;;;5.82;1.08;;;;;;;;;;4999504;28;20042;-77
2023/08/27 12:36:23;;;;;;;4.15;1.00;;;;;;;;;;5001856;28;20026;-76
2023/08/27 12:38:49;;;;;;;4.82;1.55;;;;;;;;;;5004298;28;20038;-76
2023/08/27 12:41:16;;;;;;;3.28;1.30;;;;;;;;;;5004519;28;20042;-75
2023/08/27 12:43:42;;;;;;;4.32;1.70;;;;;;;;;;5005711;28;20037;-76
2023/08/27 12:46:08;;;;;;;7.68;2.15;;;;;;;;;;5008716;28;20120;-76
2023/08/27 12:48:37;;;;;;;7.80;1.52;;;;;;;;;;5008918;28;20041;-76
2023/08/27 12:51:04;;;;;;;4.75;1.63;;;;;;;;;;5011216;28;20038;-76
2023/08/27 12:53:30;;;;;;;4.10;1.65;;;;;;;;;;5006905;28;20033;-76
2023/08/27 12:55:56;;;;;;;4.78;1.50;;;;;;;;;;5007274;28;20048;-76
2023/08/27 12:58:22;;;;;;;6.15;2.08;;;;;;;;;;5006828;28;20038;-77
2023/08/27 13:00:49;;;;;;;3.40;1.30;;;;;;;;;;5004644;28;20041;-76
2023/08/27 13:03:15;;;;;;;3.35;1.40;;;;;;;;;;5007699;28;20054;-78
2023/08/27 13:05:41;;;;;;;6.88;1.77;;;;;;;;;;4983925;28;20038;-75
2023/08/27 13:08:07;;;;;;;4.45;1.55;;;;;;;;;;4988864;28;20033;-77
2023/08/27 13:10:34;;;;;;;5.15;1.80;;;;;;;;;;5007469;28;20034;-77
2023/08/27 13:13:00;;;;;;;3.72;1.70;;;;;;;;;;4989827;28;20058;-78
2023/08/27 13:15:26;;;;;;;3.97;2.10;;;;;;;;;;5006753;28;20118;-79
2023/08/27 13:17:53;;;;;;;5.88;2.22;;;;;;;;;;5012118;28;20044;-78
2023/08/27 13:20:20;;;;;;;8.70;2.45;;;;;;;;;;5006561;28;20030;-77
2023/08/27 13:22:46;;;;;;;6.97;3.00;;;;;;;;;;5007188;28;20057;-78
2023/08/27 13:25:13;;;;;;;5.60;2.78;;;;;;;;;;5008413;28;20181;-78
2023/08/27 13:27:39;;;;;;;11.35;2.83;;;;;;;;;;5008087;28;20069;-78
2023/08/27 13:30:06;;;;;;;5.72;2.75;;;;;;;;;;4994067;28;20025;-76
2023/08/27 13:32:33;;;;;;;6.32;2.63;;;;;;;;;;5008728;28;20133;-79
2023/08/27 13:34:59;;;;;;;7.70;2.40;;;;;;;;;;5009212;28;20124;-76
2023/08/27 13:37:25;;;;;;;4.00;1.77;;;;;;;;;;5012443;28;20064;-78
2023/08/27 13:39:51;;;;;;;3.97;1.70;;;;;;;;;;5007939;28;20038;-76
2023/08/27 13:42:17;;;;;;;4.03;1.48;;;;;;;;;;5003601;28;20507;-77
2023/08/27 13:44:43;;;;;;;4.13;1.70;;;;;;;;;;4981827;28;20046;-77
2023/08/27 13:47:10;;;;;;;4.15;1.90;;;;;;;;;;4999989;28;20045;-77
2023/08/27 13:49:39;;;;;;;4.32;1.90;;;;;;;;;;5007889;28;20025;-80
2023/08/27 13:52:09;;;;;;;6.10;1.88;;;;;;;;;;5011068;28;20828;-77
2023/08/27 13:54:38;;;;;;;2.30;1.75;;;;;;;;;;4990339;28;20125;-78
2023/08/27 13:57:04;;;;;;;4.25;1.75;;;;;;;;;;4999802;28;20141;-75
2023/08/27 13:59:32;;;;;;;5.65;2.00;;;;;;;;;;4991933;28;20026;-76
2023/08/27 14:01:58;;;;;;;3.53;2.10;;;;;;;;;;5003144;28;20053;-76
2023/08/27 14:04:24;;;;;;;3.35;2.17;;;;;;;;;;5011058;28;20036;-77
2023/08/27 14:06:50;;;;;;;3.72;2.17;;;;;;;;;;4989826;28;20042;-77
2023/08/27 14:09:16;;;;;;;4.50;2.47;;;;;;;;;;4998086;28;20033;-78
2023/08/27 14:11:44;;;;;;;5.50;3.05;;;;;;;;;;4984453;28;20040;-78
2023/08/27 14:14:10;;;;;;;5.38;3.08;;;;;;;;;;5005978;28;20076;-79
2023/08/27 14:16:37;;;;;;;7.35;3.70;;;;;;;;;;4992380;28;20060;-77
2023/08/27 14:19:03;;;;;;;4.30;2.80;;;;;;;;;;5005266;28;20061;-76
2023/08/27 14:21:29;;;;;;;5.80;2.78;;;;;;;;;;5008543;28;20033;-79
2023/08/27 14:23:56;;;;;;;6.05;2.10;;;;;;;;;;5005580;28;20272;-77
2023/08/27 14:26:22;;;;;;;4.28;2.58;;;;;;;;;;5005301;28;20048;-80